This is the latest recevied weather packets stored in our database for station/object N0TKN. If no packets are shown the sender has not sent any weather packets the latest 10 day(s).
| Time | Temp. | Humidity | Pressure | Rain* | Wind** | Luminosity | Snow |
|---|---|---|---|---|---|---|---|
| 1777941918 | 25.56° C | 52% | 1002 hPa | 0 mm | - | 19 W/m² | - |
| 1777941316 | 26.11° C | 51% | 1001.9 hPa | 0 mm | - | 28 W/m² | - |
| 1777940716 | 26.11° C | 50% | 1001.9 hPa | 0 mm | - | 30 W/m² | - |
| 1777940116 | 26.11° C | 49% | 1001.9 hPa | 0 mm | - | 35 W/m² | - |
| 1777939516 | 26.67° C | 49% | 1001.8 hPa | 0 mm | - | 55 W/m² | - |
| 1777938916 | 26.67° C | 48% | 1001.7 hPa | 0 mm | - | 66 W/m² | - |
| 1777938316 | 26.67° C | 48% | 1001.7 hPa | 0 mm | - | 79 W/m² | - |
| 1777937716 | 27.22° C | 48% | 1001.7 hPa | 0 mm | - | 83 W/m² | - |
| 1777937117 | 27.22° C | 47% | 1001.7 hPa | 0 mm | - | 86 W/m² | - |
| 1777936517 | 27.22° C | 46% | 1001.7 hPa | 0 mm | - | 111 W/m² | - |
| 1777935917 | 27.78° C | 46% | 1001.7 hPa | 0 mm | - | 148 W/m² | - |
| 1777935317 | 27.78° C | 45% | 1001.5 hPa | 0 mm | - | 271 W/m² | - |
| 1777934717 | 27.78° C | 45% | 1001.5 hPa | 0 mm | - | 298 W/m² | - |
| 1777934117 | 27.78° C | 44% | 1001.5 hPa | 0 mm | - | 320 W/m² | - |
| 1777933518 | 27.78° C | 44% | 1001.4 hPa | 0 mm | - | 380 W/m² | - |
| 1777932918 | 28.33° C | 44% | 1001.4 hPa | 0 mm | - | 394 W/m² | - |
| 1777932316 | 27.78° C | 44% | 1001.4 hPa | 0 mm | - | 435 W/m² | - |
| 1777931716 | 27.78° C | 45% | 1001.7 hPa | 0 mm | - | 307 W/m² | - |
| 1777931116 | 28.33° C | 44% | 1001.4 hPa | 0 mm | - | 525 W/m² | - |
| 1777930515 | 28.33° C | 44% | 1001.6 hPa | 0 mm | - | 445 W/m² | - |
| 1777929915 | 28.33° C | 44% | 1001.6 hPa | 0 mm | - | 519 W/m² | - |
| 1777929315 | 27.78° C | 45% | 1001.6 hPa | 0 mm | - | 650 W/m² | - |
| 1777928715 | 27.78° C | 44% | 1001.6 hPa | 0 mm | - | 579 W/m² | - |
| 1777928116 | 27.78° C | 45% | 1001.5 hPa | 0 mm | - | 738 W/m² | - |
| 1777927516 | 27.78° C | 45% | 1001.6 hPa | 0 mm | - | 745 W/m² | - |
* Rain latest hour (hover to see other rain measurements)
** Current wind speed in m/s (hover to see current wind gust speed)